sensor_id;sensor_type;location;lat;lon;timestamp;pressure;altitude;pressure_sealevel;temperature;humidity
28310;BME280;15571;50.974;13.936;2022-08-21T00:00:41;100027.69;;;20.27;100.00
28310;BME280;15571;50.974;13.936;2022-08-21T00:03:43;100025.81;;;20.29;100.00
28310;BME280;15571;50.974;13.936;2022-08-21T00:06:46;100027.63;;;20.29;100.00
28310;BME280;15571;50.974;13.936;2022-08-21T00:09:49;100027.53;;;20.30;100.00
28310;BME280;15571;50.974;13.936;2022-08-21T00:12:53;100038.16;;;20.30;100.00
28310;BME280;15571;50.974;13.936;2022-08-21T00:15:59;100029.47;;;20.27;100.00
28310;BME280;15571;50.974;13.936;2022-08-21T00:19:02;100032.06;;;20.28;100.00
28310;BME280;15571;50.974;13.936;2022-08-21T00:22:05;100024.06;;;20.28;100.00
28310;BME280;15571;50.974;13.936;2022-08-21T00:25:09;100017.78;;;20.31;100.00
28310;BME280;15571;50.974;13.936;2022-08-21T00:28:14;100025.66;;;20.32;100.00
28310;BME280;15571;50.974;13.936;2022-08-21T00:31:17;100032.72;;;20.33;100.00
28310;BME280;15571;50.974;13.936;2022-08-21T00:34:20;100031.81;;;20.33;100.00
28310;BME280;15571;50.974;13.936;2022-08-21T00:37:23;100026.50;;;20.33;100.00
28310;BME280;15571;50.974;13.936;2022-08-21T00:40:30;100027.38;;;20.33;100.00
28310;BME280;15571;50.974;13.936;2022-08-21T00:43:38;100031.78;;;20.34;100.00
28310;BME280;15571;50.974;13.936;2022-08-21T00:46:43;100027.38;;;20.33;100.00
28310;BME280;15571;50.974;13.936;2022-08-21T00:49:48;100025.66;;;20.32;100.00
28310;BME280;15571;50.974;13.936;2022-08-21T00:52:51;100024.72;;;20.33;100.00
28310;BME280;15571;50.974;13.936;2022-08-21T00:55:55;100020.22;;;20.35;100.00
28310;BME280;15571;50.974;13.936;2022-08-21T00:58:59;100032.56;;;20.36;100.00
28310;BME280;15571;50.974;13.936;2022-08-21T01:02:04;100023.72;;;20.36;100.00
28310;BME280;15571;50.974;13.936;2022-08-21T01:05:08;100022.78;;;20.37;100.00
28310;BME280;15571;50.974;13.936;2022-08-21T01:08:12;100026.22;;;20.39;100.00
28310;BME280;15571;50.974;13.936;2022-08-21T01:11:15;100028.81;;;20.41;100.00
28310;BME280;15571;50.974;13.936;2022-08-21T01:14:20;100028.81;;;20.41;100.00
28310;BME280;15571;50.974;13.936;2022-08-21T01:17:26;100026.94;;;20.43;100.00
28310;BME280;15571;50.974;13.936;2022-08-21T01:20:29;100028.66;;;20.44;100.00
28310;BME280;15571;50.974;13.936;2022-08-21T01:23:39;100030.66;;;20.38;100.00
28310;BME280;15571;50.974;13.936;2022-08-21T01:26:43;100023.66;;;20.37;100.00
28310;BME280;15571;50.974;13.936;2022-08-21T01:29:51;100023.78;;;20.34;100.00
28310;BME280;15571;50.974;13.936;2022-08-21T01:32:56;100033.41;;;20.37;100.00
28310;BME280;15571;50.974;13.936;2022-08-21T01:36:03;100027.38;;;20.33;100.00
28310;BME280;15571;50.974;13.936;2022-08-21T01:39:08;100023.00;;;20.32;100.00
28310;BME280;15571;50.974;13.936;2022-08-21T01:42:11;100020.66;;;20.26;100.00
28310;BME280;15571;50.974;13.936;2022-08-21T01:45:15;100035.38;;;20.33;100.00
28310;BME280;15571;50.974;13.936;2022-08-21T01:48:18;100020.50;;;20.29;100.00
28310;BME280;15571;50.974;13.936;2022-08-21T01:51:24;100026.50;;;20.33;100.00
28310;BME280;15571;50.974;13.936;2022-08-21T01:54:29;100028.25;;;20.34;100.00
28310;BME280;15571;50.974;13.936;2022-08-21T01:57:31;100036.94;;;20.37;100.00
28310;BME280;15571;50.974;13.936;2022-08-21T02:00:36;100025.66;;;20.32;100.00
28310;BME280;15571;50.974;13.936;2022-08-21T02:03:39;100031.06;;;20.31;100.00
28310;BME280;15571;50.974;13.936;2022-08-21T02:06:42;100030.19;;;20.30;100.00
28310;BME280;15571;50.974;13.936;2022-08-21T02:09:46;100037.13;;;20.33;100.00
28310;BME280;15571;50.974;13.936;2022-08-21T02:12:55;100033.78;;;20.29;100.00
28310;BME280;15571;50.974;13.936;2022-08-21T02:15:59;100045.91;;;20.35;100.00
28310;BME280;15571;50.974;13.936;2022-08-21T02:19:03;100039.88;;;20.31;100.00
28310;BME280;15571;50.974;13.936;2022-08-21T02:22:06;100036.53;;;20.28;100.00
28310;BME280;15571;50.974;13.936;2022-08-21T02:25:11;100049.72;;;20.29;100.00
28310;BME280;15571;50.974;13.936;2022-08-21T02:28:15;100047.25;;;20.26;100.00
28310;BME280;15571;50.974;13.936;2022-08-21T02:31:17;100046.31;;;20.27;100.00
28310;BME280;15571;50.974;13.936;2022-08-21T02:34:20;100041.97;;;20.25;100.00
28310;BME280;15571;50.974;13.936;2022-08-21T02:37:24;100045.56;;;20.24;100.00
28310;BME280;15571;50.974;13.936;2022-08-21T02:40:33;100039.53;;;20.20;100.00
28310;BME280;15571;50.974;13.936;2022-08-21T02:43:45;100036.19;;;20.16;100.00
28310;BME280;15571;50.974;13.936;2022-08-21T02:46:48;100035.34;;;20.16;100.00
28310;BME280;15571;50.974;13.936;2022-08-21T02:49:52;100023.13;;;20.12;100.00
28310;BME280;15571;50.974;13.936;2022-08-21T02:52:55;100030.03;;;20.16;100.00
28310;BME280;15571;50.974;13.936;2022-08-21T02:56:01;100030.03;;;20.16;100.00
28310;BME280;15571;50.974;13.936;2022-08-21T02:59:04;100036.31;;;20.13;100.00
28310;BME280;15571;50.974;13.936;2022-08-21T03:02:08;100029.22;;;20.14;100.00
28310;BME280;15571;50.974;13.936;2022-08-21T03:05:12;100025.91;;;20.09;100.00
28310;BME280;15571;50.974;13.936;2022-08-21T03:08:16;100021.41;;;20.11;100.00
28310;BME280;15571;50.974;13.936;2022-08-21T03:11:21;100021.56;;;20.08;100.00
28310;BME280;15571;50.974;13.936;2022-08-21T03:14:24;100027.63;;;20.10;100.00
28310;BME280;15571;50.974;13.936;2022-08-21T03:17:26;100014.66;;;20.03;100.00
28310;BME280;15571;50.974;13.936;2022-08-21T03:20:32;100024.28;;;20.06;100.00
28310;BME280;15571;50.974;13.936;2022-08-21T03:23:35;100019.97;;;20.03;100.00
28310;BME280;15571;50.974;13.936;2022-08-21T03:26:42;100025.28;;;20.03;100.00
28310;BME280;15571;50.974;13.936;2022-08-21T03:29:45;100024.50;;;20.01;100.00
28310;BME280;15571;50.974;13.936;2022-08-21T03:32:47;100020.13;;;20.00;100.00
28310;BME280;15571;50.974;13.936;2022-08-21T03:35:58;100031.53;;;20.02;100.00
28310;BME280;15571;50.974;13.936;2022-08-21T03:39:02;100021.84;;;20.01;100.00
28310;BME280;15571;50.974;13.936;2022-08-21T03:42:07;100034.31;;;19.99;100.00
28310;BME280;15571;50.974;13.936;2022-08-21T03:45:10;100035.28;;;19.98;100.00
28310;BME280;15571;50.974;13.936;2022-08-21T03:48:13;100040.53;;;20.00;100.00
28310;BME280;15571;50.974;13.936;2022-08-21T03:51:16;100040.59;;;19.98;100.00
28310;BME280;15571;50.974;13.936;2022-08-21T03:54:19;100043.25;;;19.98;100.00
28310;BME280;15571;50.974;13.936;2022-08-21T03:57:23;100050.44;;;19.96;100.00
28310;BME280;15571;50.974;13.936;2022-08-21T04:00:26;100066.50;;;19.93;100.00
28310;BME280;15571;50.974;13.936;2022-08-21T04:03:28;100060.34;;;19.93;100.00
28310;BME280;15571;50.974;13.936;2022-08-21T04:06:32;100053.56;;;19.85;100.00
28310;BME280;15571;50.974;13.936;2022-08-21T04:09:37;100066.81;;;19.87;100.00
28310;BME280;15571;50.974;13.936;2022-08-21T04:12:41;100063.31;;;19.85;100.00
28310;BME280;15571;50.974;13.936;2022-08-21T04:15:47;100064.19;;;19.85;100.00
28310;BME280;15571;50.974;13.936;2022-08-21T04:18:52;100059.88;;;19.83;100.00
28310;BME280;15571;50.974;13.936;2022-08-21T04:21:57;100072.22;;;19.84;100.00
28310;BME280;15571;50.974;13.936;2022-08-21T04:24:59;100072.16;;;19.85;100.00
28310;BME280;15571;50.974;13.936;2022-08-21T04:28:04;100069.50;;;19.85;100.00
28310;BME280;15571;50.974;13.936;2022-08-21T04:31:09;100058.16;;;19.82;100.00
28310;BME280;15571;50.974;13.936;2022-08-21T04:34:12;100056.22;;;19.85;100.00
28310;BME280;15571;50.974;13.936;2022-08-21T04:37:15;100062.13;;;19.92;100.00
28310;BME280;15571;50.974;13.936;2022-08-21T04:40:21;100062.13;;;19.92;100.00
28310;BME280;15571;50.974;13.936;2022-08-21T04:43:26;100064.78;;;19.92;100.00
28310;BME280;15571;50.974;13.936;2022-08-21T04:46:29;100071.75;;;19.95;100.00
28310;BME280;15571;50.974;13.936;2022-08-21T04:49:32;100068.22;;;19.94;100.00
28310;BME280;15571;50.974;13.936;2022-08-21T04:52:35;100061.06;;;19.96;100.00
28310;BME280;15571;50.974;13.936;2022-08-21T04:55:39;100069.16;;;19.93;100.00
28310;BME280;15571;50.974;13.936;2022-08-21T04:58:45;100070.97;;;19.93;100.00
28310;BME280;15571;50.974;13.936;2022-08-21T05:01:51;100076.13;;;19.96;100.00
28310;BME280;15571;50.974;13.936;2022-08-21T05:04:55;100078.84;;;19.94;100.00
28310;BME280;15571;50.974;13.936;2022-08-21T05:08:01;100066.50;;;19.93;100.00
28310;BME280;15571;50.974;13.936;2022-08-21T05:11:08;100069.09;;;19.95;100.00
28310;BME280;15571;50.974;13.936;2022-08-21T05:14:13;100084.19;;;19.94;100.00
28310;BME280;15571;50.974;13.936;2022-08-21T05:17:16;100079.78;;;19.93;100.00
28310;BME280;15571;50.974;13.936;2022-08-21T05:20:19;100077.94;;;19.95;100.00
28310;BME280;15571;50.974;13.936;2022-08-21T05:23:23;100077.13;;;19.93;100.00
28310;BME280;15571;50.974;13.936;2022-08-21T05:26:26;100074.47;;;19.93;100.00
28310;BME280;15571;50.974;13.936;2022-08-21T05:29:30;100072.63;;;19.95;100.00
28310;BME280;15571;50.974;13.936;2022-08-21T05:32:40;100071.53;;;19.99;100.00
28310;BME280;15571;50.974;13.936;2022-08-21T05:35:49;100070.59;;;20.00;100.00
28310;BME280;15571;50.974;13.936;2022-08-21T05:38:52;100081.16;;;20.02;100.00
28310;BME280;15571;50.974;13.936;2022-08-21T05:41:55;100068.72;;;20.02;100.00
28310;BME280;15571;50.974;13.936;2022-08-21T05:45:01;100073.97;;;20.04;100.00
28310;BME280;15571;50.974;13.936;2022-08-21T05:48:06;100067.66;;;20.06;100.00
28310;BME280;15571;50.974;13.936;2022-08-21T05:51:11;100081.72;;;20.09;100.00
28310;BME280;15571;50.974;13.936;2022-08-21T05:54:16;100082.69;;;20.08;100.00
28310;BME280;15571;50.974;13.936;2022-08-21T05:57:18;100075.63;;;20.06;100.00
28310;BME280;15571;50.974;13.936;2022-08-21T06:00:22;100085.25;;;20.09;100.00
28310;BME280;15571;50.974;13.936;2022-08-21T06:03:27;100094.06;;;20.10;100.00
28310;BME280;15571;50.974;13.936;2022-08-21T06:06:33;100088.84;;;20.08;100.00
28310;BME280;15571;50.974;13.936;2022-08-21T06:09:36;100092.22;;;20.12;100.00
28310;BME280;15571;50.974;13.936;2022-08-21T06:12:39;100087.78;;;20.12;100.00
28310;BME280;15571;50.974;13.936;2022-08-21T06:15:46;100087.59;;;20.15;100.00
28310;BME280;15571;50.974;13.936;2022-08-21T06:18:52;100084.94;;;20.15;100.00
28310;BME280;15571;50.974;13.936;2022-08-21T06:21:55;100083.22;;;20.14;100.00
28310;BME280;15571;50.974;13.936;2022-08-21T06:25:00;100081.44;;;20.15;100.00
28310;BME280;15571;50.974;13.936;2022-08-21T06:28:04;100079.72;;;20.14;100.00
28310;BME280;15571;50.974;13.936;2022-08-21T06:31:15;100079.28;;;20.23;100.00
28310;BME280;15571;50.974;13.936;2022-08-21T06:34:19;100080.84;;;20.27;100.00
28310;BME280;15571;50.974;13.936;2022-08-21T06:37:22;100082.72;;;20.25;100.00
28310;BME280;15571;50.974;13.936;2022-08-21T06:40:25;100082.28;;;20.34;100.00
28310;BME280;15571;50.974;13.936;2022-08-21T06:43:28;100094.47;;;20.38;100.00
28310;BME280;15571;50.974;13.936;2022-08-21T06:46:32;100098.72;;;20.43;100.00
28310;BME280;15571;50.974;13.936;2022-08-21T06:49:38;100091.59;;;20.43;100.00
28310;BME280;15571;50.974;13.936;2022-08-21T06:52:42;100092.91;;;20.34;100.00
28310;BME280;15571;50.974;13.936;2022-08-21T06:55:46;100089.16;;;20.38;100.00
28310;BME280;15571;50.974;13.936;2022-08-21T06:58:48;100075.09;;;20.36;100.00
28310;BME280;15571;50.974;13.936;2022-08-21T07:01:54;100079.97;;;20.46;100.00
28310;BME280;15571;50.974;13.936;2022-08-21T07:05:00;100075.25;;;20.51;100.00
28310;BME280;15571;50.974;13.936;2022-08-21T07:08:03;100080.34;;;20.56;100.00
28310;BME280;15571;50.974;13.936;2022-08-21T07:11:11;100070.38;;;20.61;100.00
28310;BME280;15571;50.974;13.936;2022-08-21T07:14:17;100073.97;;;20.60;100.00
28310;BME280;15571;50.974;13.936;2022-08-21T07:17:22;100062.53;;;20.58;100.00
28310;BME280;15571;50.974;13.936;2022-08-21T07:20:25;100052.44;;;20.64;100.00
28310;BME280;15571;50.974;13.936;2022-08-21T07:23:30;100073.31;;;20.74;100.00
28310;BME280;15571;50.974;13.936;2022-08-21T07:26:34;100076.84;;;20.73;100.00
28310;BME280;15571;50.974;13.936;2022-08-21T07:29:37;100078.63;;;20.74;100.00
28310;BME280;15571;50.974;13.936;2022-08-21T07:32:42;100075.03;;;20.75;100.00
28310;BME280;15571;50.974;13.936;2022-08-21T07:35:45;100078.31;;;20.80;100.00
28310;BME280;15571;50.974;13.936;2022-08-21T07:38:49;100083.16;;;20.89;100.00
28310;BME280;15571;50.974;13.936;2022-08-21T07:41:52;100082.69;;;20.81;100.00
28310;BME280;15571;50.974;13.936;2022-08-21T07:45:00;100081.59;;;20.85;100.00
28310;BME280;15571;50.974;13.936;2022-08-21T07:48:06;100088.31;;;20.92;100.00
28310;BME280;15571;50.974;13.936;2022-08-21T07:51:11;100089.72;;;20.99;100.00
28310;BME280;15571;50.974;13.936;2022-08-21T07:54:14;100084.25;;;21.03;100.00
28310;BME280;15571;50.974;13.936;2022-08-21T07:57:17;100090.97;;;21.10;100.00
28310;BME280;15571;50.974;13.936;2022-08-21T08:00:23;100090.13;;;21.09;100.00
28310;BME280;15571;50.974;13.936;2022-08-21T08:03:33;100086.34;;;21.13;100.00
28310;BME280;15571;50.974;13.936;2022-08-21T08:06:36;100087.75;;;21.03;100.00
28310;BME280;15571;50.974;13.936;2022-08-21T08:09:41;100092.84;;;21.08;100.00
28310;BME280;15571;50.974;13.936;2022-08-21T08:12:47;100091.22;;;21.05;100.00
28310;BME280;15571;50.974;13.936;2022-08-21T08:15:58;100090.84;;;20.95;100.00
28310;BME280;15571;50.974;13.936;2022-08-21T08:19:03;100091.59;;;20.97;100.00
28310;BME280;15571;50.974;13.936;2022-08-21T08:22:13;100092.25;;;21.03;100.00
28310;BME280;15571;50.974;13.936;2022-08-21T08:25:17;100090.03;;;21.11;100.00
28310;BME280;15571;50.974;13.936;2022-08-21T08:28:22;100086.53;;;21.10;100.00
28310;BME280;15571;50.974;13.936;2022-08-21T08:31:25;100092.56;;;21.14;100.00
28310;BME280;15571;50.974;13.936;2022-08-21T08:34:29;100099.50;;;21.17;100.00
28310;BME280;15571;50.974;13.936;2022-08-21T08:37:33;100096.84;;;21.17;100.00
28310;BME280;15571;50.974;13.936;2022-08-21T08:40:43;100107.97;;;21.25;100.00
28310;BME280;15571;50.974;13.936;2022-08-21T08:43:50;100106.00;;;21.28;100.00
28310;BME280;15571;50.974;13.936;2022-08-21T08:46:56;100095.66;;;21.22;100.00
28310;BME280;15571;50.974;13.936;2022-08-21T08:50:06;100100.50;;;21.32;100.00
28310;BME280;15571;50.974;13.936;2022-08-21T08:53:21;100099.94;;;21.42;100.00
28310;BME280;15571;50.974;13.936;2022-08-21T08:56:30;100092.97;;;21.40;100.00
28310;BME280;15571;50.974;13.936;2022-08-21T08:59:39;100106.06;;;21.44;100.00
28310;BME280;15571;50.974;13.936;2022-08-21T09:02:46;100094.69;;;21.41;100.00
28310;BME280;15571;50.974;13.936;2022-08-21T09:05:56;100094.38;;;21.47;100.00
28310;BME280;15571;50.974;13.936;2022-08-21T09:09:08;100102.69;;;21.58;100.00
28310;BME280;15571;50.974;13.936;2022-08-21T09:12:22;100098.00;;;21.64;100.00
28310;BME280;15571;50.974;13.936;2022-08-21T09:15:43;100093.50;;;21.64;100.00
28310;BME280;15571;50.974;13.936;2022-08-21T09:19:04;100093.00;;;21.73;100.00
28310;BME280;15571;50.974;13.936;2022-08-21T09:22:19;100093.63;;;21.79;100.00
28310;BME280;15571;50.974;13.936;2022-08-21T09:25:28;100091.38;;;21.71;100.00
28310;BME280;15571;50.974;13.936;2022-08-21T09:28:34;100088.56;;;21.74;100.00
28310;BME280;15571;50.974;13.936;2022-08-21T09:31:37;100101.19;;;21.86;100.00
28310;BME280;15571;50.974;13.936;2022-08-21T09:34:40;100091.16;;;21.91;100.00
28310;BME280;15571;50.974;13.936;2022-08-21T09:37:53;100069.06;;;21.89;100.00
28310;BME280;15571;50.974;13.936;2022-08-21T09:41:00;100078.09;;;21.87;100.00
28310;BME280;15571;50.974;13.936;2022-08-21T09:44:05;100085.03;;;21.89;100.00
28310;BME280;15571;50.974;13.936;2022-08-21T09:47:11;100072.16;;;21.98;100.00
28310;BME280;15571;50.974;13.936;2022-08-21T09:50:17;100085.06;;;22.05;100.00
28310;BME280;15571;50.974;13.936;2022-08-21T09:53:23;100085.75;;;22.09;100.00
28310;BME280;15571;50.974;13.936;2022-08-21T09:56:31;100081.59;;;22.03;100.00
28310;BME280;15571;50.974;13.936;2022-08-21T09:59:51;100083.34;;;22.04;100.00
28310;BME280;15571;50.974;13.936;2022-08-21T10:02:54;100085.91;;;22.06;100.00
28310;BME280;15571;50.974;13.936;2022-08-21T10:06:01;100080.41;;;22.09;100.00
28310;BME280;15571;50.974;13.936;2022-08-21T10:09:10;100082.97;;;22.11;100.00
28310;BME280;15571;50.974;13.936;2022-08-21T10:12:22;100080.75;;;22.03;100.00
28310;BME280;15571;50.974;13.936;2022-08-21T10:15:34;100072.50;;;22.07;100.00
28310;BME280;15571;50.974;13.936;2022-08-21T10:18:41;100069.75;;;22.09;100.00
28310;BME280;15571;50.974;13.936;2022-08-21T10:21:56;100078.25;;;22.00;100.00
28310;BME280;15571;50.974;13.936;2022-08-21T10:25:08;100074.81;;;21.98;100.00
28310;BME280;15571;50.974;13.936;2022-08-21T10:28:22;100078.53;;;22.11;100.00
28310;BME280;15571;50.974;13.936;2022-08-21T10:31:34;100075.91;;;22.26;100.00
28310;BME280;15571;50.974;13.936;2022-08-21T10:34:47;100077.31;;;22.33;100.00
28310;BME280;15571;50.974;13.936;2022-08-21T10:38:14;100080.72;;;22.35;100.00
28310;BME280;15571;50.974;13.936;2022-08-21T10:45:03;100080.06;;;22.15;100.00
28310;BME280;15571;50.974;13.936;2022-08-21T10:48:28;100070.84;;;22.05;100.00
28310;BME280;15571;50.974;13.936;2022-08-21T10:51:35;100081.72;;;22.18;100.00
28310;BME280;15571;50.974;13.936;2022-08-21T10:54:50;100076.81;;;22.26;100.00
28310;BME280;15571;50.974;13.936;2022-08-21T10:57:59;100072.56;;;22.38;100.00
28310;BME280;15571;50.974;13.936;2022-08-21T11:01:07;100076.09;;;22.54;100.00
28310;BME280;15571;50.974;13.936;2022-08-21T11:04:19;100079.38;;;22.60;100.00
28310;BME280;15571;50.974;13.936;2022-08-21T11:07:28;100082.53;;;22.66;100.00
28310;BME280;15571;50.974;13.936;2022-08-21T11:10:38;100080.72;;;22.67;100.00
28310;BME280;15571;50.974;13.936;2022-08-21T11:13:47;100080.41;;;22.57;100.00
28310;BME280;15571;50.974;13.936;2022-08-21T11:16:59;100077.47;;;22.62;100.00
28310;BME280;15571;50.974;13.936;2022-08-21T11:20:07;100080.88;;;22.64;100.00
28310;BME280;15571;50.974;13.936;2022-08-21T11:23:16;100089.44;;;22.54;100.00
28310;BME280;15571;50.974;13.936;2022-08-21T11:26:29;100087.19;;;22.63;100.00
28310;BME280;15571;50.974;13.936;2022-08-21T11:29:38;100085.75;;;22.57;100.00
28310;BME280;15571;50.974;13.936;2022-08-21T11:33:03;100082.19;;;22.57;100.00
28310;BME280;15571;50.974;13.936;2022-08-21T11:36:12;100062.47;;;22.59;100.00
28310;BME280;15571;50.974;13.936;2022-08-21T11:39:27;100071.19;;;22.63;100.00
28310;BME280;15571;50.974;13.936;2022-08-21T11:42:39;100075.00;;;22.73;100.00
28310;BME280;15571;50.974;13.936;2022-08-21T11:45:50;100064.81;;;22.65;100.00
28310;BME280;15571;50.974;13.936;2022-08-21T11:49:02;100068.00;;;22.72;100.00
28310;BME280;15571;50.974;13.936;2022-08-21T11:52:15;100064.53;;;22.70;100.00
28310;BME280;15571;50.974;13.936;2022-08-21T11:55:23;100064.16;;;22.76;100.00
28310;BME280;15571;50.974;13.936;2022-08-21T11:58:31;100058.50;;;22.82;100.00
28310;BME280;15571;50.974;13.936;2022-08-21T12:01:39;100058.00;;;22.76;100.00
28310;BME280;15571;50.974;13.936;2022-08-21T12:04:46;100051.50;;;22.80;100.00
28310;BME280;15571;50.974;13.936;2022-08-21T12:08:01;100052.94;;;22.85;100.00
28310;BME280;15571;50.974;13.936;2022-08-21T12:11:07;100053.44;;;22.92;100.00
28310;BME280;15571;50.974;13.936;2022-08-21T12:14:13;100051.72;;;22.91;100.00
28310;BME280;15571;50.974;13.936;2022-08-21T12:17:36;100061.56;;;22.91;100.00
28310;BME280;15571;50.974;13.936;2022-08-21T12:20:42;100054.94;;;22.82;100.00
28310;BME280;15571;50.974;13.936;2022-08-21T12:23:47;100053.81;;;22.86;100.00
28310;BME280;15571;50.974;13.936;2022-08-21T12:26:55;100042.28;;;22.85;100.00
28310;BME280;15571;50.974;13.936;2022-08-21T12:30:01;100044.50;;;22.93;100.00
28310;BME280;15571;50.974;13.936;2022-08-21T12:33:20;100045.16;;;22.97;100.00
28310;BME280;15571;50.974;13.936;2022-08-21T12:36:30;100044.78;;;23.03;100.00
28310;BME280;15571;50.974;13.936;2022-08-21T12:39:38;100046.50;;;23.04;100.00
28310;BME280;15571;50.974;13.936;2022-08-21T12:42:47;100044.72;;;23.05;100.00
28310;BME280;15571;50.974;13.936;2022-08-21T12:45:51;100042.09;;;23.03;100.00
28310;BME280;15571;50.974;13.936;2022-08-21T12:48:58;100052.03;;;23.01;99.45
28310;BME280;15571;50.974;13.936;2022-08-21T12:52:09;100045.66;;;23.04;99.54
28310;BME280;15571;50.974;13.936;2022-08-21T12:55:24;100035.25;;;23.13;100.00
28310;BME280;15571;50.974;13.936;2022-08-21T12:58:31;100036.72;;;23.19;100.00
28310;BME280;15571;50.974;13.936;2022-08-21T13:01:35;100026.81;;;23.21;100.00
28310;BME280;15571;50.974;13.936;2022-08-21T13:04:45;100013.19;;;23.26;100.00
28310;BME280;15571;50.974;13.936;2022-08-21T13:07:51;100031.41;;;23.34;100.00
28310;BME280;15571;50.974;13.936;2022-08-21T13:10:58;100027.31;;;23.28;92.60
28310;BME280;15571;50.974;13.936;2022-08-21T13:14:03;100024.25;;;23.34;93.17
28310;BME280;15571;50.974;13.936;2022-08-21T13:17:09;100038.56;;;23.33;91.79
28310;BME280;15571;50.974;13.936;2022-08-21T13:20:23;100025.59;;;23.27;86.32
28310;BME280;15571;50.974;13.936;2022-08-21T13:23:28;100020.63;;;23.35;91.24
28310;BME280;15571;50.974;13.936;2022-08-21T13:26:31;100016.59;;;23.42;92.21
28310;BME280;15571;50.974;13.936;2022-08-21T13:29:34;100032.44;;;23.45;84.59
28310;BME280;15571;50.974;13.936;2022-08-21T13:32:41;100016.72;;;23.41;86.30
28310;BME280;15571;50.974;13.936;2022-08-21T13:35:51;100017.38;;;23.44;85.73
28310;BME280;15571;50.974;13.936;2022-08-21T13:38:56;100013.94;;;23.57;88.33
28310;BME280;15571;50.974;13.936;2022-08-21T13:42:02;100011.28;;;23.57;84.10
28310;BME280;15571;50.974;13.936;2022-08-21T13:45:13;100013.84;;;23.58;84.75
28310;BME280;15571;50.974;13.936;2022-08-21T13:48:23;100018.34;;;23.58;81.12
28310;BME280;15571;50.974;13.936;2022-08-21T13:51:29;100011.09;;;23.60;84.81
28310;BME280;15571;50.974;13.936;2022-08-21T13:54:35;100022.78;;;23.57;81.50
28310;BME280;15571;50.974;13.936;2022-08-21T13:57:38;100020.22;;;23.56;84.38
28310;BME280;15571;50.974;13.936;2022-08-21T14:00:46;100020.22;;;23.56;85.59
28310;BME280;15571;50.974;13.936;2022-08-21T14:03:52;100016.44;;;23.60;86.71
28310;BME280;15571;50.974;13.936;2022-08-21T14:06:57;100027.59;;;23.52;81.76
28310;BME280;15571;50.974;13.936;2022-08-21T14:10:01;100016.25;;;23.49;84.03
28310;BME280;15571;50.974;13.936;2022-08-21T14:13:06;100013.16;;;23.55;88.15
28310;BME280;15571;50.974;13.936;2022-08-21T14:16:18;100022.91;;;23.56;90.09
28310;BME280;15571;50.974;13.936;2022-08-21T14:19:23;100024.91;;;23.52;80.38
28310;BME280;15571;50.974;13.936;2022-08-21T14:22:36;100030.91;;;23.56;82.64
28310;BME280;15571;50.974;13.936;2022-08-21T14:25:44;100025.41;;;23.59;84.42
28310;BME280;15571;50.974;13.936;2022-08-21T14:28:47;100027.28;;;23.57;80.69
28310;BME280;15571;50.974;13.936;2022-08-21T14:31:55;100024.53;;;23.58;79.90
28310;BME280;15571;50.974;13.936;2022-08-21T14:34:58;100020.91;;;23.59;76.82
28310;BME280;15571;50.974;13.936;2022-08-21T14:38:12;100015.25;;;23.64;82.04
28310;BME280;15571;50.974;13.936;2022-08-21T14:41:17;100021.19;;;23.69;80.14
28310;BME280;15571;50.974;13.936;2022-08-21T14:44:20;100026.91;;;23.77;80.43
28310;BME280;15571;50.974;13.936;2022-08-21T14:47:25;100022.50;;;23.76;79.34
28310;BME280;15571;50.974;13.936;2022-08-21T14:50:29;100023.75;;;23.71;73.87
28310;BME280;15571;50.974;13.936;2022-08-21T14:53:36;100026.22;;;23.74;74.92
28310;BME280;15571;50.974;13.936;2022-08-21T14:56:39;100014.66;;;23.73;77.25
28310;BME280;15571;50.974;13.936;2022-08-21T14:59:44;100012.88;;;23.74;77.81
28310;BME280;15571;50.974;13.936;2022-08-21T15:02:47;100022.50;;;23.76;81.70
28310;BME280;15571;50.974;13.936;2022-08-21T15:05:55;100013.16;;;23.69;79.08
28310;BME280;15571;50.974;13.936;2022-08-21T15:09:03;100012.56;;;23.78;84.96
28310;BME280;15571;50.974;13.936;2022-08-21T15:12:07;100014.84;;;23.85;83.69
28310;BME280;15571;50.974;13.936;2022-08-21T15:15:11;100011.03;;;23.89;85.52
28310;BME280;15571;50.974;13.936;2022-08-21T15:18:15;100002.25;;;23.87;79.83
28310;BME280;15571;50.974;13.936;2022-08-21T15:21:18;99996.31;;;23.82;77.73
28310;BME280;15571;50.974;13.936;2022-08-21T15:24:22;100005.09;;;23.84;78.47
28310;BME280;15571;50.974;13.936;2022-08-21T15:27:25;99994.25;;;23.72;76.22
28310;BME280;15571;50.974;13.936;2022-08-21T15:30:29;100009.03;;;23.78;80.28
28310;BME280;15571;50.974;13.936;2022-08-21T15:33:32;100006.47;;;23.76;81.51
28310;BME280;15571;50.974;13.936;2022-08-21T15:36:35;100009.31;;;23.73;81.95
28310;BME280;15571;50.974;13.936;2022-08-21T15:39:39;100013.34;;;23.81;84.47
28310;BME280;15571;50.974;13.936;2022-08-21T15:42:43;100005.59;;;23.76;83.34
28310;BME280;15571;50.974;13.936;2022-08-21T15:45:46;100009.25;;;23.75;82.21
28310;BME280;15571;50.974;13.936;2022-08-21T15:48:49;100012.00;;;23.73;81.79
28310;BME280;15571;50.974;13.936;2022-08-21T15:51:51;100011.03;;;23.74;82.90
28310;BME280;15571;50.974;13.936;2022-08-21T15:54:55;100003.69;;;23.78;85.05